sensor_id;sensor_type;location;lat;lon;timestamp;P1;durP1;ratioP1;P2;durP2;ratioP2
50555;SDS011;36508;52.512;13.450;2023-05-16T00:00:15;11.47;;;10.50;;
50555;SDS011;36508;52.512;13.450;2023-05-16T00:02:41;11.43;;;10.30;;
50555;SDS011;36508;52.512;13.450;2023-05-16T00:05:07;11.00;;;10.37;;
50555;SDS011;36508;52.512;13.450;2023-05-16T00:07:34;11.67;;;10.73;;
50555;SDS011;36508;52.512;13.450;2023-05-16T00:10:00;12.57;;;11.77;;
50555;SDS011;36508;52.512;13.450;2023-05-16T00:12:26;12.60;;;11.43;;
50555;SDS011;36508;52.512;13.450;2023-05-16T00:14:52;11.70;;;10.90;;
50555;SDS011;36508;52.512;13.450;2023-05-16T00:17:18;11.30;;;10.27;;
50555;SDS011;36508;52.512;13.450;2023-05-16T00:19:44;11.00;;;10.40;;
50555;SDS011;36508;52.512;13.450;2023-05-16T00:22:14;11.40;;;10.60;;
50555;SDS011;36508;52.512;13.450;2023-05-16T00:24:40;12.30;;;11.13;;
50555;SDS011;36508;52.512;13.450;2023-05-16T00:27:05;17.23;;;15.80;;
50555;SDS011;36508;52.512;13.450;2023-05-16T00:29:31;14.07;;;12.97;;
50555;SDS011;36508;52.512;13.450;2023-05-16T00:31:58;14.13;;;13.10;;
50555;SDS011;36508;52.512;13.450;2023-05-16T00:34:24;15.07;;;13.67;;
50555;SDS011;36508;52.512;13.450;2023-05-16T00:36:49;15.50;;;12.80;;
50555;SDS011;36508;52.512;13.450;2023-05-16T00:39:15;13.70;;;12.63;;
50555;SDS011;36508;52.512;13.450;2023-05-16T00:41:41;14.57;;;13.57;;
50555;SDS011;36508;52.512;13.450;2023-05-16T00:44:06;14.97;;;13.97;;
50555;SDS011;36508;52.512;13.450;2023-05-16T00:46:32;14.80;;;13.70;;
50555;SDS011;36508;52.512;13.450;2023-05-16T00:48:58;12.80;;;11.80;;
50555;SDS011;36508;52.512;13.450;2023-05-16T00:51:24;13.50;;;12.53;;
50555;SDS011;36508;52.512;13.450;2023-05-16T00:53:49;15.30;;;14.10;;
50555;SDS011;36508;52.512;13.450;2023-05-16T00:56:15;17.63;;;16.30;;
50555;SDS011;36508;52.512;13.450;2023-05-16T00:58:42;14.57;;;13.47;;
50555;SDS011;36508;52.512;13.450;2023-05-16T01:01:08;15.37;;;14.33;;
50555;SDS011;36508;52.512;13.450;2023-05-16T01:03:33;16.90;;;15.57;;
50555;SDS011;36508;52.512;13.450;2023-05-16T01:05:59;16.10;;;14.73;;
50555;SDS011;36508;52.512;13.450;2023-05-16T01:08:25;15.13;;;13.30;;
50555;SDS011;36508;52.512;13.450;2023-05-16T01:28:00;19.20;;;17.67;;
50555;SDS011;36508;52.512;13.450;2023-05-16T01:30:30;19.97;;;18.40;;
50555;SDS011;36508;52.512;13.450;2023-05-16T01:32:59;22.40;;;20.50;;
50555;SDS011;36508;52.512;13.450;2023-05-16T01:35:25;21.67;;;20.07;;
50555;SDS011;36508;52.512;13.450;2023-05-16T01:46:23;16.53;;;13.77;;
50555;SDS011;36508;52.512;13.450;2023-05-16T01:51:41;22.80;;;20.87;;
50555;SDS011;36508;52.512;13.450;2023-05-16T01:54:13;18.47;;;16.97;;
50555;SDS011;36508;52.512;13.450;2023-05-16T01:56:42;21.50;;;19.30;;
50555;SDS011;36508;52.512;13.450;2023-05-16T01:59:15;26.70;;;16.20;;
50555;SDS011;36508;52.512;13.450;2023-05-16T02:01:42;20.33;;;18.67;;
50555;SDS011;36508;52.512;13.450;2023-05-16T02:04:07;23.90;;;21.33;;
50555;SDS011;36508;52.512;13.450;2023-05-16T02:06:33;20.50;;;18.57;;
50555;SDS011;36508;52.512;13.450;2023-05-16T02:08:59;19.47;;;17.83;;
50555;SDS011;36508;52.512;13.450;2023-05-16T02:11:25;21.63;;;19.93;;
50555;SDS011;36508;52.512;13.450;2023-05-16T02:13:50;19.73;;;17.93;;
50555;SDS011;36508;52.512;13.450;2023-05-16T02:16:16;15.40;;;14.00;;
50555;SDS011;36508;52.512;13.450;2023-05-16T02:18:41;19.90;;;18.10;;
50555;SDS011;36508;52.512;13.450;2023-05-16T02:21:09;19.67;;;17.83;;
50555;SDS011;36508;52.512;13.450;2023-05-16T02:23:34;20.37;;;18.60;;
50555;SDS011;36508;52.512;13.450;2023-05-16T02:26:00;20.90;;;18.80;;
50555;SDS011;36508;52.512;13.450;2023-05-16T02:28:31;21.60;;;19.73;;
50555;SDS011;36508;52.512;13.450;2023-05-16T02:30:58;21.07;;;19.27;;
50555;SDS011;36508;52.512;13.450;2023-05-16T02:33:24;22.10;;;19.80;;
50555;SDS011;36508;52.512;13.450;2023-05-16T02:35:51;17.70;;;16.40;;
50555;SDS011;36508;52.512;13.450;2023-05-16T02:38:17;21.30;;;19.40;;
50555;SDS011;36508;52.512;13.450;2023-05-16T02:40:45;20.17;;;18.40;;
50555;SDS011;36508;52.512;13.450;2023-05-16T02:43:13;20.07;;;18.53;;
50555;SDS011;36508;52.512;13.450;2023-05-16T02:45:39;17.10;;;15.63;;
50555;SDS011;36508;52.512;13.450;2023-05-16T02:48:05;20.60;;;18.63;;
50555;SDS011;36508;52.512;13.450;2023-05-16T02:50:31;18.17;;;16.77;;
50555;SDS011;36508;52.512;13.450;2023-05-16T02:52:57;18.27;;;16.77;;
50555;SDS011;36508;52.512;13.450;2023-05-16T02:55:24;19.63;;;15.43;;
50555;SDS011;36508;52.512;13.450;2023-05-16T02:57:50;17.87;;;16.37;;
50555;SDS011;36508;52.512;13.450;2023-05-16T03:00:16;21.33;;;19.20;;
50555;SDS011;36508;52.512;13.450;2023-05-16T03:02:42;14.10;;;12.90;;
50555;SDS011;36508;52.512;13.450;2023-05-16T03:05:09;16.67;;;15.03;;
50555;SDS011;36508;52.512;13.450;2023-05-16T03:07:35;21.53;;;19.60;;
50555;SDS011;36508;52.512;13.450;2023-05-16T03:10:01;21.03;;;18.73;;
50555;SDS011;36508;52.512;13.450;2023-05-16T03:12:27;20.20;;;17.90;;
50555;SDS011;36508;52.512;13.450;2023-05-16T03:14:53;20.47;;;18.17;;
50555;SDS011;36508;52.512;13.450;2023-05-16T03:17:18;22.60;;;20.10;;
50555;SDS011;36508;52.512;13.450;2023-05-16T03:19:44;21.30;;;19.10;;
50555;SDS011;36508;52.512;13.450;2023-05-16T03:22:10;18.00;;;16.30;;
50555;SDS011;36508;52.512;13.450;2023-05-16T03:24:35;27.20;;;18.67;;
50555;SDS011;36508;52.512;13.450;2023-05-16T03:27:01;18.30;;;16.67;;
50555;SDS011;36508;52.512;13.450;2023-05-16T03:29:27;21.40;;;19.67;;
50555;SDS011;36508;52.512;13.450;2023-05-16T03:31:53;19.33;;;17.73;;
50555;SDS011;36508;52.512;13.450;2023-05-16T03:34:19;21.33;;;19.20;;
50555;SDS011;36508;52.512;13.450;2023-05-16T03:36:45;19.53;;;17.67;;
50555;SDS011;36508;52.512;13.450;2023-05-16T03:39:12;23.23;;;21.10;;
50555;SDS011;36508;52.512;13.450;2023-05-16T03:41:37;21.80;;;19.80;;
50555;SDS011;36508;52.512;13.450;2023-05-16T03:44:03;20.97;;;19.30;;
50555;SDS011;36508;52.512;13.450;2023-05-16T03:46:29;24.00;;;21.87;;
50555;SDS011;36508;52.512;13.450;2023-05-16T03:48:54;21.03;;;19.23;;
50555;SDS011;36508;52.512;13.450;2023-05-16T03:51:20;22.40;;;20.57;;
50555;SDS011;36508;52.512;13.450;2023-05-16T03:53:46;21.93;;;19.93;;
50555;SDS011;36508;52.512;13.450;2023-05-16T03:56:11;20.30;;;18.63;;
50555;SDS011;36508;52.512;13.450;2023-05-16T03:58:37;23.27;;;21.27;;
50555;SDS011;36508;52.512;13.450;2023-05-16T04:01:02;21.37;;;19.20;;
50555;SDS011;36508;52.512;13.450;2023-05-16T04:03:28;23.27;;;21.00;;
50555;SDS011;36508;52.512;13.450;2023-05-16T04:05:54;23.23;;;21.17;;
50555;SDS011;36508;52.512;13.450;2023-05-16T04:08:20;22.23;;;20.13;;
50555;SDS011;36508;52.512;13.450;2023-05-16T04:10:46;21.43;;;19.47;;
50555;SDS011;36508;52.512;13.450;2023-05-16T04:13:13;21.87;;;19.87;;
50555;SDS011;36508;52.512;13.450;2023-05-16T04:15:39;21.97;;;19.87;;
50555;SDS011;36508;52.512;13.450;2023-05-16T04:18:04;23.20;;;21.10;;
50555;SDS011;36508;52.512;13.450;2023-05-16T04:20:30;22.17;;;19.73;;
50555;SDS011;36508;52.512;13.450;2023-05-16T04:22:55;21.83;;;19.80;;
50555;SDS011;36508;52.512;13.450;2023-05-16T04:25:21;25.77;;;22.10;;
50555;SDS011;36508;52.512;13.450;2023-05-16T04:27:46;22.97;;;20.80;;
50555;SDS011;36508;52.512;13.450;2023-05-16T04:30:12;21.27;;;19.43;;
50555;SDS011;36508;52.512;13.450;2023-05-16T04:32:38;23.10;;;21.00;;
50555;SDS011;36508;52.512;13.450;2023-05-16T04:35:04;20.70;;;18.87;;
50555;SDS011;36508;52.512;13.450;2023-05-16T04:37:33;22.97;;;20.83;;
50555;SDS011;36508;52.512;13.450;2023-05-16T04:39:59;20.33;;;18.57;;
50555;SDS011;36508;52.512;13.450;2023-05-16T04:42:25;24.07;;;21.77;;
50555;SDS011;36508;52.512;13.450;2023-05-16T04:44:51;22.60;;;20.70;;
50555;SDS011;36508;52.512;13.450;2023-05-16T04:47:20;24.50;;;22.30;;
50555;SDS011;36508;52.512;13.450;2023-05-16T04:49:45;22.97;;;20.97;;
50555;SDS011;36508;52.512;13.450;2023-05-16T04:52:11;36.03;;;24.53;;
50555;SDS011;36508;52.512;13.450;2023-05-16T04:54:37;26.00;;;22.80;;
50555;SDS011;36508;52.512;13.450;2023-05-16T04:57:03;25.70;;;23.37;;
50555;SDS011;36508;52.512;13.450;2023-05-16T04:59:29;22.27;;;20.10;;
50555;SDS011;36508;52.512;13.450;2023-05-16T05:01:55;24.20;;;21.97;;
50555;SDS011;36508;52.512;13.450;2023-05-16T05:04:21;25.20;;;22.77;;
50555;SDS011;36508;52.512;13.450;2023-05-16T05:06:46;25.93;;;23.57;;
50555;SDS011;36508;52.512;13.450;2023-05-16T05:09:12;22.20;;;20.20;;
50555;SDS011;36508;52.512;13.450;2023-05-16T05:11:38;24.93;;;22.70;;
50555;SDS011;36508;52.512;13.450;2023-05-16T05:14:03;24.93;;;22.53;;
50555;SDS011;36508;52.512;13.450;2023-05-16T05:16:29;24.97;;;22.87;;
50555;SDS011;36508;52.512;13.450;2023-05-16T05:18:55;18.20;;;16.67;;
50555;SDS011;36508;52.512;13.450;2023-05-16T05:21:20;26.87;;;23.57;;
50555;SDS011;36508;52.512;13.450;2023-05-16T05:23:48;23.80;;;21.40;;
50555;SDS011;36508;52.512;13.450;2023-05-16T05:26:13;25.23;;;22.77;;
50555;SDS011;36508;52.512;13.450;2023-05-16T05:28:39;24.50;;;22.07;;
50555;SDS011;36508;52.512;13.450;2023-05-16T05:31:05;30.10;;;24.70;;
50555;SDS011;36508;52.512;13.450;2023-05-16T05:33:32;24.27;;;21.70;;
50555;SDS011;36508;52.512;13.450;2023-05-16T05:35:57;23.60;;;21.37;;
50555;SDS011;36508;52.512;13.450;2023-05-16T05:38:23;16.30;;;14.90;;
50555;SDS011;36508;52.512;13.450;2023-05-16T05:40:49;22.30;;;20.03;;
50555;SDS011;36508;52.512;13.450;2023-05-16T05:43:15;23.10;;;21.00;;
50555;SDS011;36508;52.512;13.450;2023-05-16T05:45:40;22.77;;;20.53;;
50555;SDS011;36508;52.512;13.450;2023-05-16T05:48:06;22.93;;;20.53;;
50555;SDS011;36508;52.512;13.450;2023-05-16T05:50:32;22.10;;;15.30;;
50555;SDS011;36508;52.512;13.450;2023-05-16T05:52:58;22.40;;;20.20;;
50555;SDS011;36508;52.512;13.450;2023-05-16T05:55:24;21.67;;;18.73;;
50555;SDS011;36508;52.512;13.450;2023-05-16T05:57:50;53.77;;;25.10;;
50555;SDS011;36508;52.512;13.450;2023-05-16T06:00:15;20.57;;;18.67;;
50555;SDS011;36508;52.512;13.450;2023-05-16T06:02:41;22.47;;;20.63;;
50555;SDS011;36508;52.512;13.450;2023-05-16T06:05:07;19.37;;;17.67;;
50555;SDS011;36508;52.512;13.450;2023-05-16T06:07:33;25.47;;;17.47;;
50555;SDS011;36508;52.512;13.450;2023-05-16T06:09:58;16.50;;;15.10;;
50555;SDS011;36508;52.512;13.450;2023-05-16T06:12:28;17.17;;;15.77;;
50555;SDS011;36508;52.512;13.450;2023-05-16T06:14:54;17.93;;;16.10;;
50555;SDS011;36508;52.512;13.450;2023-05-16T06:17:20;17.13;;;15.07;;
50555;SDS011;36508;52.512;13.450;2023-05-16T06:19:45;16.97;;;15.60;;
50555;SDS011;36508;52.512;13.450;2023-05-16T06:22:11;14.97;;;13.70;;
50555;SDS011;36508;52.512;13.450;2023-05-16T06:24:37;18.13;;;13.80;;
50555;SDS011;36508;52.512;13.450;2023-05-16T06:27:02;17.00;;;15.30;;
50555;SDS011;36508;52.512;13.450;2023-05-16T06:29:28;17.60;;;14.50;;
50555;SDS011;36508;52.512;13.450;2023-05-16T06:31:53;14.60;;;13.20;;
50555;SDS011;36508;52.512;13.450;2023-05-16T06:34:20;15.00;;;13.80;;
50555;SDS011;36508;52.512;13.450;2023-05-16T06:36:52;11.03;;;9.93;;
50555;SDS011;36508;52.512;13.450;2023-05-16T06:39:18;16.70;;;13.90;;
50555;SDS011;36508;52.512;13.450;2023-05-16T06:41:44;12.63;;;11.43;;
50555;SDS011;36508;52.512;13.450;2023-05-16T06:44:09;12.80;;;11.63;;
50555;SDS011;36508;52.512;13.450;2023-05-16T06:46:35;14.50;;;12.60;;
50555;SDS011;36508;52.512;13.450;2023-05-16T06:49:02;12.00;;;10.60;;
50555;SDS011;36508;52.512;13.450;2023-05-16T06:54:50;12.30;;;11.30;;
50555;SDS011;36508;52.512;13.450;2023-05-16T06:57:16;14.13;;;12.60;;
50555;SDS011;36508;52.512;13.450;2023-05-16T06:59:41;14.50;;;10.27;;
50555;SDS011;36508;52.512;13.450;2023-05-16T07:02:07;15.70;;;12.80;;
50555;SDS011;36508;52.512;13.450;2023-05-16T07:04:33;12.57;;;11.20;;
50555;SDS011;36508;52.512;13.450;2023-05-16T07:07:00;10.03;;;9.03;;
50555;SDS011;36508;52.512;13.450;2023-05-16T07:09:26;11.93;;;10.40;;
50555;SDS011;36508;52.512;13.450;2023-05-16T07:11:51;12.17;;;10.53;;
50555;SDS011;36508;52.512;13.450;2023-05-16T07:14:17;10.10;;;9.30;;
50555;SDS011;36508;52.512;13.450;2023-05-16T07:16:42;10.80;;;9.70;;
50555;SDS011;36508;52.512;13.450;2023-05-16T07:19:08;8.27;;;7.50;;
50555;SDS011;36508;52.512;13.450;2023-05-16T07:21:34;9.40;;;8.50;;
50555;SDS011;36508;52.512;13.450;2023-05-16T07:23:59;9.50;;;8.70;;
50555;SDS011;36508;52.512;13.450;2023-05-16T07:26:25;12.97;;;8.87;;
50555;SDS011;36508;52.512;13.450;2023-05-16T07:28:51;8.43;;;7.83;;
50555;SDS011;36508;52.512;13.450;2023-05-16T07:31:17;10.70;;;9.40;;
50555;SDS011;36508;52.512;13.450;2023-05-16T07:33:43;8.57;;;7.77;;
50555;SDS011;36508;52.512;13.450;2023-05-16T07:36:11;9.13;;;8.33;;
50555;SDS011;36508;52.512;13.450;2023-05-16T07:38:37;8.87;;;7.97;;
50555;SDS011;36508;52.512;13.450;2023-05-16T07:41:02;9.90;;;8.90;;
50555;SDS011;36508;52.512;13.450;2023-05-16T07:43:28;10.23;;;7.90;;
50555;SDS011;36508;52.512;13.450;2023-05-16T07:45:56;7.33;;;6.90;;
50555;SDS011;36508;52.512;13.450;2023-05-16T07:48:26;7.97;;;6.10;;
50555;SDS011;36508;52.512;13.450;2023-05-16T07:50:51;8.03;;;6.93;;
50555;SDS011;36508;52.512;13.450;2023-05-16T07:53:26;8.53;;;6.73;;
50555;SDS011;36508;52.512;13.450;2023-05-16T07:55:58;6.43;;;5.83;;
50555;SDS011;36508;52.512;13.450;2023-05-16T07:58:38;6.33;;;5.90;;
50555;SDS011;36508;52.512;13.450;2023-05-16T08:01:07;6.27;;;5.63;;
50555;SDS011;36508;52.512;13.450;2023-05-16T08:03:33;5.83;;;5.30;;
50555;SDS011;36508;52.512;13.450;2023-05-16T08:06:10;5.80;;;5.40;;
50555;SDS011;36508;52.512;13.450;2023-05-16T08:08:36;5.33;;;4.83;;
50555;SDS011;36508;52.512;13.450;2023-05-16T08:11:02;5.77;;;5.37;;
50555;SDS011;36508;52.512;13.450;2023-05-16T08:13:28;7.27;;;6.37;;
50555;SDS011;36508;52.512;13.450;2023-05-16T08:15:59;5.63;;;5.00;;
50555;SDS011;36508;52.512;13.450;2023-05-16T08:18:28;6.03;;;5.63;;
50555;SDS011;36508;52.512;13.450;2023-05-16T08:21:00;4.40;;;4.00;;
50555;SDS011;36508;52.512;13.450;2023-05-16T08:23:25;12.07;;;6.00;;
50555;SDS011;36508;52.512;13.450;2023-05-16T08:25:51;5.73;;;4.93;;
50555;SDS011;36508;52.512;13.450;2023-05-16T08:28:18;4.40;;;4.00;;
50555;SDS011;36508;52.512;13.450;2023-05-16T08:30:44;5.73;;;5.33;;
50555;SDS011;36508;52.512;13.450;2023-05-16T08:33:09;6.57;;;5.57;;
50555;SDS011;36508;52.512;13.450;2023-05-16T08:35:35;7.03;;;4.60;;
50555;SDS011;36508;52.512;13.450;2023-05-16T08:38:01;4.57;;;4.27;;
50555;SDS011;36508;52.512;13.450;2023-05-16T08:40:27;9.47;;;5.63;;
50555;SDS011;36508;52.512;13.450;2023-05-16T08:42:53;5.67;;;4.73;;
50555;SDS011;36508;52.512;13.450;2023-05-16T08:45:19;5.10;;;4.30;;
50555;SDS011;36508;52.512;13.450;2023-05-16T08:47:46;4.40;;;4.00;;
50555;SDS011;36508;52.512;13.450;2023-05-16T08:50:15;4.70;;;3.27;;
50555;SDS011;36508;52.512;13.450;2023-05-16T08:52:41;7.23;;;4.90;;
50555;SDS011;36508;52.512;13.450;2023-05-16T08:55:08;4.43;;;4.03;;
50555;SDS011;36508;52.512;13.450;2023-05-16T08:57:34;4.40;;;3.40;;
50555;SDS011;36508;52.512;13.450;2023-05-16T09:00:00;3.40;;;3.10;;
50555;SDS011;36508;52.512;13.450;2023-05-16T09:02:28;5.10;;;3.57;;
50555;SDS011;36508;52.512;13.450;2023-05-16T09:04:54;3.27;;;3.00;;
50555;SDS011;36508;52.512;13.450;2023-05-16T09:07:21;4.33;;;3.23;;
50555;SDS011;36508;52.512;13.450;2023-05-16T09:09:47;4.77;;;3.37;;
50555;SDS011;36508;52.512;13.450;2023-05-16T09:12:13;6.60;;;3.73;;
50555;SDS011;36508;52.512;13.450;2023-05-16T09:14:38;3.47;;;3.10;;
50555;SDS011;36508;52.512;13.450;2023-05-16T09:17:05;4.30;;;3.77;;
50555;SDS011;36508;52.512;13.450;2023-05-16T09:19:32;7.63;;;2.97;;
50555;SDS011;36508;52.512;13.450;2023-05-16T09:22:04;7.73;;;4.27;;
50555;SDS011;36508;52.512;13.450;2023-05-16T09:24:37;5.03;;;2.20;;
50555;SDS011;36508;52.512;13.450;2023-05-16T09:27:13;8.10;;;3.63;;
50555;SDS011;36508;52.512;13.450;2023-05-16T09:29:40;6.13;;;4.03;;
50555;SDS011;36508;52.512;13.450;2023-05-16T09:32:13;3.77;;;3.17;;
50555;SDS011;36508;52.512;13.450;2023-05-16T09:34:44;5.50;;;3.33;;
50555;SDS011;36508;52.512;13.450;2023-05-16T09:37:12;3.07;;;2.50;;
50555;SDS011;36508;52.512;13.450;2023-05-16T09:39:39;29.03;;;4.23;;
50555;SDS011;36508;52.512;13.450;2023-05-16T09:42:10;5.63;;;3.27;;
50555;SDS011;36508;52.512;13.450;2023-05-16T09:44:36;6.53;;;3.60;;
50555;SDS011;36508;52.512;13.450;2023-05-16T09:47:02;3.97;;;2.63;;
50555;SDS011;36508;52.512;13.450;2023-05-16T09:49:28;3.23;;;2.37;;
50555;SDS011;36508;52.512;13.450;2023-05-16T09:51:54;3.30;;;2.53;;
50555;SDS011;36508;52.512;13.450;2023-05-16T09:54:32;4.10;;;2.53;;
50555;SDS011;36508;52.512;13.450;2023-05-16T09:56:59;2.90;;;2.70;;
50555;SDS011;36508;52.512;13.450;2023-05-16T09:59:27;3.97;;;3.17;;
50555;SDS011;36508;52.512;13.450;2023-05-16T10:01:54;7.07;;;3.10;;
50555;SDS011;36508;52.512;13.450;2023-05-16T10:04:25;7.73;;;4.00;;
50555;SDS011;36508;52.512;13.450;2023-05-16T10:06:52;2.60;;;2.30;;
50555;SDS011;36508;52.512;13.450;2023-05-16T10:09:21;3.20;;;2.50;;
50555;SDS011;36508;52.512;13.450;2023-05-16T10:11:48;3.60;;;2.20;;
50555;SDS011;36508;52.512;13.450;2023-05-16T10:14:18;6.83;;;3.93;;
50555;SDS011;36508;52.512;13.450;2023-05-16T10:16:46;4.43;;;3.00;;
50555;SDS011;36508;52.512;13.450;2023-05-16T10:19:14;6.57;;;3.70;;
50555;SDS011;36508;52.512;13.450;2023-05-16T10:21:45;3.53;;;2.70;;
50555;SDS011;36508;52.512;13.450;2023-05-16T10:24:17;10.10;;;5.83;;
50555;SDS011;36508;52.512;13.450;2023-05-16T10:26:48;6.70;;;3.43;;
50555;SDS011;36508;52.512;13.450;2023-05-16T10:29:15;12.63;;;3.90;;
50555;SDS011;36508;52.512;13.450;2023-05-16T10:31:41;6.70;;;3.90;;
50555;SDS011;36508;52.512;13.450;2023-05-16T10:34:08;8.97;;;4.60;;
50555;SDS011;36508;52.512;13.450;2023-05-16T10:36:34;4.13;;;3.87;;
50555;SDS011;36508;52.512;13.450;2023-05-16T10:39:00;6.30;;;3.30;;
50555;SDS011;36508;52.512;13.450;2023-05-16T10:41:31;7.10;;;5.87;;
50555;SDS011;36508;52.512;13.450;2023-05-16T10:43:58;5.37;;;3.30;;
50555;SDS011;36508;52.512;13.450;2023-05-16T10:46:25;5.63;;;3.20;;
50555;SDS011;36508;52.512;13.450;2023-05-16T10:48:51;3.43;;;3.20;;
50555;SDS011;36508;52.512;13.450;2023-05-16T10:53:53;4.00;;;3.27;;
50555;SDS011;36508;52.512;13.450;2023-05-16T10:56:23;3.50;;;2.70;;
50555;SDS011;36508;52.512;13.450;2023-05-16T10:58:51;5.83;;;3.90;;
50555;SDS011;36508;52.512;13.450;2023-05-16T11:01:25;4.70;;;3.47;;
50555;SDS011;36508;52.512;13.450;2023-05-16T11:06:22;5.90;;;4.37;;
50555;SDS011;36508;52.512;13.450;2023-05-16T11:11:56;8.20;;;4.60;;
50555;SDS011;36508;52.512;13.450;2023-05-16T11:19:31;6.43;;;3.13;;
50555;SDS011;36508;52.512;13.450;2023-05-16T11:27:24;8.07;;;3.03;;
50555;SDS011;36508;52.512;13.450;2023-05-16T11:29:52;8.13;;;3.10;;
50555;SDS011;36508;52.512;13.450;2023-05-16T11:32:18;3.90;;;2.03;;
50555;SDS011;36508;52.512;13.450;2023-05-16T11:34:46;5.20;;;3.10;;
50555;SDS011;36508;52.512;13.450;2023-05-16T11:37:12;9.17;;;3.67;;
50555;SDS011;36508;52.512;13.450;2023-05-16T11:39:39;6.47;;;3.20;;
50555;SDS011;36508;52.512;13.450;2023-05-16T11:42:05;9.20;;;4.33;;
50555;SDS011;36508;52.512;13.450;2023-05-16T11:44:30;6.80;;;5.73;;
50555;SDS011;36508;52.512;13.450;2023-05-16T11:46:56;11.43;;;4.23;;
50555;SDS011;36508;52.512;13.450;2023-05-16T11:49:23;6.47;;;3.40;;
50555;SDS011;36508;52.512;13.450;2023-05-16T11:51:52;7.40;;;5.83;;
50555;SDS011;36508;52.512;13.450;2023-05-16T11:54:18;13.30;;;5.70;;
50555;SDS011;36508;52.512;13.450;2023-05-16T11:56:44;6.73;;;2.57;;
50555;SDS011;36508;52.512;13.450;2023-05-16T11:59:10;5.10;;;2.63;;
50555;SDS011;36508;52.512;13.450;2023-05-16T12:01:36;5.80;;;3.10;;
50555;SDS011;36508;52.512;13.450;2023-05-16T12:04:12;7.57;;;4.20;;
50555;SDS011;36508;52.512;13.450;2023-05-16T12:06:40;11.80;;;2.43;;
50555;SDS011;36508;52.512;13.450;2023-05-16T12:09:14;2.47;;;2.00;;
50555;SDS011;36508;52.512;13.450;2023-05-16T12:11:40;7.60;;;2.33;;
50555;SDS011;36508;52.512;13.450;2023-05-16T12:14:08;7.90;;;2.87;;
50555;SDS011;36508;52.512;13.450;2023-05-16T12:16:36;16.90;;;4.07;;
50555;SDS011;36508;52.512;13.450;2023-05-16T12:19:04;5.70;;;2.27;;
50555;SDS011;36508;52.512;13.450;2023-05-16T12:21:30;5.27;;;2.00;;
50555;SDS011;36508;52.512;13.450;2023-05-16T12:23:57;6.33;;;2.40;;
50555;SDS011;36508;52.512;13.450;2023-05-16T12:26:24;5.10;;;2.67;;
50555;SDS011;36508;52.512;13.450;2023-05-16T12:28:59;3.10;;;2.30;;
50555;SDS011;36508;52.512;13.450;2023-05-16T12:31:27;4.63;;;2.37;;
50555;SDS011;36508;52.512;13.450;2023-05-16T12:33:56;4.07;;;1.53;;
50555;SDS011;36508;52.512;13.450;2023-05-16T12:36:23;4.80;;;2.40;;
50555;SDS011;36508;52.512;13.450;2023-05-16T12:38:50;7.27;;;3.50;;
50555;SDS011;36508;52.512;13.450;2023-05-16T12:41:20;11.63;;;3.20;;
50555;SDS011;36508;52.512;13.450;2023-05-16T12:43:50;11.73;;;2.60;;
50555;SDS011;36508;52.512;13.450;2023-05-16T12:46:15;4.50;;;2.00;;
50555;SDS011;36508;52.512;13.450;2023-05-16T12:48:43;6.00;;;2.50;;
50555;SDS011;36508;52.512;13.450;2023-05-16T12:51:12;4.43;;;2.77;;
50555;SDS011;36508;52.512;13.450;2023-05-16T12:53:40;5.90;;;2.67;;
50555;SDS011;36508;52.512;13.450;2023-05-16T12:56:10;5.27;;;2.13;;
50555;SDS011;36508;52.512;13.450;2023-05-16T12:58:37;6.80;;;2.20;;
50555;SDS011;36508;52.512;13.450;2023-05-16T13:01:03;5.37;;;2.07;;
50555;SDS011;36508;52.512;13.450;2023-05-16T13:03:30;5.80;;;2.03;;
50555;SDS011;36508;52.512;13.450;2023-05-16T13:05:56;6.90;;;2.67;;
50555;SDS011;36508;52.512;13.450;2023-05-16T13:08:22;10.40;;;2.10;;
50555;SDS011;36508;52.512;13.450;2023-05-16T13:10:48;5.10;;;3.00;;
50555;SDS011;36508;52.512;13.450;2023-05-16T13:13:14;5.83;;;2.60;;
50555;SDS011;36508;52.512;13.450;2023-05-16T13:15:40;9.30;;;3.17;;
50555;SDS011;36508;52.512;13.450;2023-05-16T13:18:06;3.60;;;2.17;;
50555;SDS011;36508;52.512;13.450;2023-05-16T13:20:32;6.97;;;2.97;;
50555;SDS011;36508;52.512;13.450;2023-05-16T13:22:58;7.87;;;2.10;;
50555;SDS011;36508;52.512;13.450;2023-05-16T13:25:24;4.20;;;1.70;;
50555;SDS011;36508;52.512;13.450;2023-05-16T13:27:50;5.00;;;2.10;;
50555;SDS011;36508;52.512;13.450;2023-05-16T13:30:16;13.20;;;3.33;;
50555;SDS011;36508;52.512;13.450;2023-05-16T13:32:41;8.20;;;2.83;;
50555;SDS011;36508;52.512;13.450;2023-05-16T13:35:07;16.90;;;2.03;;
50555;SDS011;36508;52.512;13.450;2023-05-16T13:37:34;3.87;;;2.43;;
50555;SDS011;36508;52.512;13.450;2023-05-16T13:40:00;3.00;;;1.60;;
50555;SDS011;36508;52.512;13.450;2023-05-16T13:42:26;2.93;;;1.40;;
50555;SDS011;36508;52.512;13.450;2023-05-16T13:44:52;4.73;;;2.00;;
50555;SDS011;36508;52.512;13.450;2023-05-16T13:47:17;6.97;;;1.80;;
50555;SDS011;36508;52.512;13.450;2023-05-16T13:49:43;3.70;;;1.63;;
50555;SDS011;36508;52.512;13.450;2023-05-16T13:52:09;12.07;;;2.27;;
50555;SDS011;36508;52.512;13.450;2023-05-16T13:54:35;3.33;;;1.43;;
50555;SDS011;36508;52.512;13.450;2023-05-16T13:57:01;2.80;;;1.63;;
50555;SDS011;36508;52.512;13.450;2023-05-16T13:59:27;3.10;;;2.07;;
50555;SDS011;36508;52.512;13.450;2023-05-16T14:01:53;2.80;;;1.73;;
50555;SDS011;36508;52.512;13.450;2023-05-16T14:04:18;3.57;;;1.67;;
50555;SDS011;36508;52.512;13.450;2023-05-16T14:06:44;7.93;;;3.20;;
50555;SDS011;36508;52.512;13.450;2023-05-16T14:09:10;5.50;;;2.10;;
50555;SDS011;36508;52.512;13.450;2023-05-16T14:11:37;6.60;;;2.20;;
50555;SDS011;36508;52.512;13.450;2023-05-16T14:14:02;9.33;;;2.17;;
50555;SDS011;36508;52.512;13.450;2023-05-16T14:16:28;7.17;;;3.33;;
50555;SDS011;36508;52.512;13.450;2023-05-16T14:18:55;4.27;;;2.10;;
50555;SDS011;36508;52.512;13.450;2023-05-16T14:21:20;3.87;;;1.50;;
50555;SDS011;36508;52.512;13.450;2023-05-16T14:23:46;6.27;;;3.93;;
50555;SDS011;36508;52.512;13.450;2023-05-16T14:26:12;8.90;;;2.87;;
50555;SDS011;36508;52.512;13.450;2023-05-16T14:28:38;3.17;;;1.73;;
50555;SDS011;36508;52.512;13.450;2023-05-16T14:31:04;8.40;;;4.13;;
50555;SDS011;36508;52.512;13.450;2023-05-16T14:33:29;12.63;;;3.00;;
50555;SDS011;36508;52.512;13.450;2023-05-16T14:35:56;3.30;;;1.87;;
50555;SDS011;36508;52.512;13.450;2023-05-16T14:38:22;5.37;;;3.30;;
50555;SDS011;36508;52.512;13.450;2023-05-16T14:40:48;5.13;;;1.73;;
50555;SDS011;36508;52.512;13.450;2023-05-16T14:43:13;7.53;;;1.60;;
50555;SDS011;36508;52.512;13.450;2023-05-16T14:45:40;4.03;;;1.63;;
50555;SDS011;36508;52.512;13.450;2023-05-16T14:48:06;5.30;;;1.70;;
50555;SDS011;36508;52.512;13.450;2023-05-16T14:50:32;5.13;;;1.93;;
50555;SDS011;36508;52.512;13.450;2023-05-16T14:52:58;3.63;;;1.53;;
50555;SDS011;36508;52.512;13.450;2023-05-16T14:55:24;2.80;;;1.13;;
50555;SDS011;36508;52.512;13.450;2023-05-16T14:57:50;4.33;;;2.00;;
50555;SDS011;36508;52.512;13.450;2023-05-16T15:00:15;4.63;;;1.50;;
50555;SDS011;36508;52.512;13.450;2023-05-16T15:02:41;6.00;;;2.77;;
50555;SDS011;36508;52.512;13.450;2023-05-16T15:05:07;6.83;;;1.70;;
50555;SDS011;36508;52.512;13.450;2023-05-16T15:07:33;5.80;;;1.80;;